sensor_id;sensor_type;location;lat;lon;timestamp;P1;durP1;ratioP1;P2;durP2;ratioP2
19231;SDS011;9750;48.730;10.294;2022-07-24T00:00:56;10.25;;;9.30;;
19231;SDS011;9750;48.730;10.294;2022-07-24T00:03:23;10.50;;;9.45;;
19231;SDS011;9750;48.730;10.294;2022-07-24T00:05:51;9.60;;;8.80;;
19231;SDS011;9750;48.730;10.294;2022-07-24T00:08:19;10.18;;;9.18;;
19231;SDS011;9750;48.730;10.294;2022-07-24T00:10:47;11.13;;;10.13;;
19231;SDS011;9750;48.730;10.294;2022-07-24T00:13:14;10.93;;;10.07;;
19231;SDS011;9750;48.730;10.294;2022-07-24T00:15:42;12.10;;;10.98;;
19231;SDS011;9750;48.730;10.294;2022-07-24T00:18:11;11.70;;;10.60;;
19231;SDS011;9750;48.730;10.294;2022-07-24T00:20:38;12.15;;;11.00;;
19231;SDS011;9750;48.730;10.294;2022-07-24T00:26:04;11.55;;;10.60;;
19231;SDS011;9750;48.730;10.294;2022-07-24T00:28:32;12.13;;;10.90;;
19231;SDS011;9750;48.730;10.294;2022-07-24T00:30:59;11.70;;;10.50;;
19231;SDS011;9750;48.730;10.294;2022-07-24T00:33:28;11.18;;;10.15;;
19231;SDS011;9750;48.730;10.294;2022-07-24T00:35:56;11.50;;;10.52;;
19231;SDS011;9750;48.730;10.294;2022-07-24T00:38:23;11.25;;;10.38;;
19231;SDS011;9750;48.730;10.294;2022-07-24T00:40:50;11.65;;;10.65;;
19231;SDS011;9750;48.730;10.294;2022-07-24T00:43:18;12.57;;;11.43;;
19231;SDS011;9750;48.730;10.294;2022-07-24T00:45:46;12.90;;;11.70;;
19231;SDS011;9750;48.730;10.294;2022-07-24T00:48:13;12.83;;;11.70;;
19231;SDS011;9750;48.730;10.294;2022-07-24T00:50:43;11.73;;;10.73;;
19231;SDS011;9750;48.730;10.294;2022-07-24T00:53:10;10.70;;;9.73;;
19231;SDS011;9750;48.730;10.294;2022-07-24T00:55:38;11.13;;;10.13;;
19231;SDS011;9750;48.730;10.294;2022-07-24T00:58:06;10.68;;;9.77;;
19231;SDS011;9750;48.730;10.294;2022-07-24T01:00:33;11.27;;;10.20;;
19231;SDS011;9750;48.730;10.294;2022-07-24T01:09:15;10.80;;;9.70;;
19231;SDS011;9750;48.730;10.294;2022-07-24T01:11:43;10.35;;;9.40;;
19231;SDS011;9750;48.730;10.294;2022-07-24T01:14:11;11.75;;;10.65;;
19231;SDS011;9750;48.730;10.294;2022-07-24T01:16:39;11.57;;;10.48;;
19231;SDS011;9750;48.730;10.294;2022-07-24T01:19:06;10.40;;;9.40;;
19231;SDS011;9750;48.730;10.294;2022-07-24T01:21:35;10.83;;;9.93;;
19231;SDS011;9750;48.730;10.294;2022-07-24T01:24:03;10.97;;;9.87;;
19231;SDS011;9750;48.730;10.294;2022-07-24T01:26:30;11.13;;;10.13;;
19231;SDS011;9750;48.730;10.294;2022-07-24T01:28:58;12.18;;;10.95;;
19231;SDS011;9750;48.730;10.294;2022-07-24T01:31:25;11.90;;;10.90;;
19231;SDS011;9750;48.730;10.294;2022-07-24T01:33:53;12.27;;;11.27;;
19231;SDS011;9750;48.730;10.294;2022-07-24T01:36:20;11.83;;;10.73;;
19231;SDS011;9750;48.730;10.294;2022-07-24T01:38:49;12.00;;;11.00;;
19231;SDS011;9750;48.730;10.294;2022-07-24T01:41:16;11.47;;;10.47;;
19231;SDS011;9750;48.730;10.294;2022-07-24T01:43:44;11.67;;;10.57;;
19231;SDS011;9750;48.730;10.294;2022-07-24T01:46:11;10.77;;;9.77;;
19231;SDS011;9750;48.730;10.294;2022-07-24T01:48:38;11.40;;;10.40;;
19231;SDS011;9750;48.730;10.294;2022-07-24T01:51:07;11.03;;;10.13;;
19231;SDS011;9750;48.730;10.294;2022-07-24T01:53:35;11.00;;;10.10;;
19231;SDS011;9750;48.730;10.294;2022-07-24T01:56:04;10.83;;;9.83;;
19231;SDS011;9750;48.730;10.294;2022-07-24T01:58:32;11.17;;;10.07;;
19231;SDS011;9750;48.730;10.294;2022-07-24T02:00:59;11.07;;;10.07;;
19231;SDS011;9750;48.730;10.294;2022-07-24T02:03:26;11.23;;;10.13;;
19231;SDS011;9750;48.730;10.294;2022-07-24T02:05:54;11.50;;;10.30;;
19231;SDS011;9750;48.730;10.294;2022-07-24T02:08:21;10.87;;;9.90;;
19231;SDS011;9750;48.730;10.294;2022-07-24T02:10:49;10.83;;;9.73;;
19231;SDS011;9750;48.730;10.294;2022-07-24T02:13:18;10.93;;;10.03;;
19231;SDS011;9750;48.730;10.294;2022-07-24T02:15:45;11.00;;;9.90;;
19231;SDS011;9750;48.730;10.294;2022-07-24T02:18:12;10.57;;;9.57;;
19231;SDS011;9750;48.730;10.294;2022-07-24T02:20:40;10.17;;;9.27;;
19231;SDS011;9750;48.730;10.294;2022-07-24T02:23:07;10.37;;;9.47;;
19231;SDS011;9750;48.730;10.294;2022-07-24T02:25:34;11.90;;;10.67;;
19231;SDS011;9750;48.730;10.294;2022-07-24T02:28:02;10.87;;;9.87;;
19231;SDS011;9750;48.730;10.294;2022-07-24T02:30:31;11.37;;;10.40;;
19231;SDS011;9750;48.730;10.294;2022-07-24T02:35:30;11.40;;;10.33;;
19231;SDS011;9750;48.730;10.294;2022-07-24T02:37:57;11.23;;;10.07;;
19231;SDS011;9750;48.730;10.294;2022-07-24T02:40:25;11.70;;;10.70;;
19231;SDS011;9750;48.730;10.294;2022-07-24T02:42:52;11.70;;;10.50;;
19231;SDS011;9750;48.730;10.294;2022-07-24T02:45:20;11.63;;;10.53;;
19231;SDS011;9750;48.730;10.294;2022-07-24T02:47:49;11.93;;;10.83;;
19231;SDS011;9750;48.730;10.294;2022-07-24T02:50:18;10.70;;;9.80;;
19231;SDS011;9750;48.730;10.294;2022-07-24T02:52:46;11.97;;;10.87;;
19231;SDS011;9750;48.730;10.294;2022-07-24T02:55:13;12.53;;;11.43;;
19231;SDS011;9750;48.730;10.294;2022-07-24T02:57:41;13.33;;;12.23;;
19231;SDS011;9750;48.730;10.294;2022-07-24T03:00:10;13.67;;;12.57;;
19231;SDS011;9750;48.730;10.294;2022-07-24T03:02:40;12.53;;;11.43;;
19231;SDS011;9750;48.730;10.294;2022-07-24T03:05:09;13.83;;;12.53;;
19231;SDS011;9750;48.730;10.294;2022-07-24T03:07:37;13.17;;;12.07;;
19231;SDS011;9750;48.730;10.294;2022-07-24T03:10:07;13.57;;;12.23;;
19231;SDS011;9750;48.730;10.294;2022-07-24T03:12:35;14.00;;;12.73;;
19231;SDS011;9750;48.730;10.294;2022-07-24T03:15:03;12.57;;;11.47;;
19231;SDS011;9750;48.730;10.294;2022-07-24T03:17:31;13.93;;;12.53;;
19231;SDS011;9750;48.730;10.294;2022-07-24T03:19:58;13.40;;;12.20;;
19231;SDS011;9750;48.730;10.294;2022-07-24T03:22:27;13.73;;;12.60;;
19231;SDS011;9750;48.730;10.294;2022-07-24T03:24:55;14.87;;;13.47;;
19231;SDS011;9750;48.730;10.294;2022-07-24T03:27:22;14.13;;;12.80;;
19231;SDS011;9750;48.730;10.294;2022-07-24T03:29:50;13.67;;;12.47;;
19231;SDS011;9750;48.730;10.294;2022-07-24T03:32:17;16.43;;;12.77;;
19231;SDS011;9750;48.730;10.294;2022-07-24T03:34:44;13.60;;;12.30;;
19231;SDS011;9750;48.730;10.294;2022-07-24T03:37:12;12.73;;;11.60;;
19231;SDS011;9750;48.730;10.294;2022-07-24T03:39:41;12.37;;;11.27;;
19231;SDS011;9750;48.730;10.294;2022-07-24T03:42:08;12.63;;;11.60;;
19231;SDS011;9750;48.730;10.294;2022-07-24T03:44:35;11.63;;;10.57;;
19231;SDS011;9750;48.730;10.294;2022-07-24T03:47:03;11.93;;;10.93;;
19231;SDS011;9750;48.730;10.294;2022-07-24T03:49:30;12.03;;;10.93;;
19231;SDS011;9750;48.730;10.294;2022-07-24T03:51:58;12.13;;;11.03;;
19231;SDS011;9750;48.730;10.294;2022-07-24T03:54:25;12.13;;;10.97;;
19231;SDS011;9750;48.730;10.294;2022-07-24T03:56:54;12.43;;;11.23;;
19231;SDS011;9750;48.730;10.294;2022-07-24T03:59:21;11.67;;;10.47;;
19231;SDS011;9750;48.730;10.294;2022-07-24T04:01:49;10.70;;;9.73;;
19231;SDS011;9750;48.730;10.294;2022-07-24T04:04:16;10.80;;;9.73;;
19231;SDS011;9750;48.730;10.294;2022-07-24T04:06:44;11.83;;;10.83;;
19231;SDS011;9750;48.730;10.294;2022-07-24T04:09:11;11.57;;;10.47;;
19231;SDS011;9750;48.730;10.294;2022-07-24T04:11:38;11.00;;;9.80;;
19231;SDS011;9750;48.730;10.294;2022-07-24T04:14:07;11.03;;;10.03;;
19231;SDS011;9750;48.730;10.294;2022-07-24T04:16:35;11.60;;;10.60;;
19231;SDS011;9750;48.730;10.294;2022-07-24T04:19:02;11.90;;;10.67;;
19231;SDS011;9750;48.730;10.294;2022-07-24T04:21:30;11.83;;;10.73;;
19231;SDS011;9750;48.730;10.294;2022-07-24T04:23:57;12.30;;;11.20;;
19231;SDS011;9750;48.730;10.294;2022-07-24T04:26:24;12.47;;;11.23;;
19231;SDS011;9750;48.730;10.294;2022-07-24T04:28:52;13.20;;;12.00;;
19231;SDS011;9750;48.730;10.294;2022-07-24T04:31:21;12.47;;;11.27;;
19231;SDS011;9750;48.730;10.294;2022-07-24T04:33:48;13.03;;;11.93;;
19231;SDS011;9750;48.730;10.294;2022-07-24T04:36:15;13.47;;;11.97;;
19231;SDS011;9750;48.730;10.294;2022-07-24T04:38:43;14.00;;;12.50;;
19231;SDS011;9750;48.730;10.294;2022-07-24T04:41:10;13.67;;;12.37;;
19231;SDS011;9750;48.730;10.294;2022-07-24T04:43:37;12.73;;;11.63;;
19231;SDS011;9750;48.730;10.294;2022-07-24T04:46:05;14.93;;;13.53;;
19231;SDS011;9750;48.730;10.294;2022-07-24T04:48:34;14.50;;;13.27;;
19231;SDS011;9750;48.730;10.294;2022-07-24T04:51:01;13.37;;;12.17;;
19231;SDS011;9750;48.730;10.294;2022-07-24T04:53:28;13.57;;;12.23;;
19231;SDS011;9750;48.730;10.294;2022-07-24T04:55:56;14.30;;;12.97;;
19231;SDS011;9750;48.730;10.294;2022-07-24T04:58:24;14.83;;;13.63;;
19231;SDS011;9750;48.730;10.294;2022-07-24T05:00:52;14.43;;;13.03;;
19231;SDS011;9750;48.730;10.294;2022-07-24T05:03:20;13.20;;;12.10;;
19231;SDS011;9750;48.730;10.294;2022-07-24T05:05:49;14.73;;;13.33;;
19231;SDS011;9750;48.730;10.294;2022-07-24T05:08:16;13.93;;;12.80;;
19231;SDS011;9750;48.730;10.294;2022-07-24T05:10:44;15.27;;;13.80;;
19231;SDS011;9750;48.730;10.294;2022-07-24T05:13:11;14.57;;;13.17;;
19231;SDS011;9750;48.730;10.294;2022-07-24T05:15:38;15.13;;;13.83;;
19231;SDS011;9750;48.730;10.294;2022-07-24T05:18:06;15.33;;;13.77;;
19231;SDS011;9750;48.730;10.294;2022-07-24T05:20:33;14.90;;;13.60;;
19231;SDS011;9750;48.730;10.294;2022-07-24T05:25:32;14.10;;;13.00;;
19231;SDS011;9750;48.730;10.294;2022-07-24T05:28:00;15.43;;;14.13;;
19231;SDS011;9750;48.730;10.294;2022-07-24T05:30:27;14.73;;;13.53;;
19231;SDS011;9750;48.730;10.294;2022-07-24T05:32:55;13.70;;;12.60;;
19231;SDS011;9750;48.730;10.294;2022-07-24T05:35:22;13.83;;;12.57;;
19231;SDS011;9750;48.730;10.294;2022-07-24T05:37:49;13.67;;;12.57;;
19231;SDS011;9750;48.730;10.294;2022-07-24T05:40:18;13.50;;;12.33;;
19231;SDS011;9750;48.730;10.294;2022-07-24T05:42:46;12.63;;;11.60;;
19231;SDS011;9750;48.730;10.294;2022-07-24T05:45:13;14.47;;;13.20;;
19231;SDS011;9750;48.730;10.294;2022-07-24T05:47:40;13.17;;;11.97;;
19231;SDS011;9750;48.730;10.294;2022-07-24T05:50:09;13.37;;;12.17;;
19231;SDS011;9750;48.730;10.294;2022-07-24T05:52:37;13.77;;;12.57;;
19231;SDS011;9750;48.730;10.294;2022-07-24T05:55:05;13.32;;;12.23;;
19231;SDS011;9750;48.730;10.294;2022-07-24T05:57:35;12.95;;;11.75;;
19231;SDS011;9750;48.730;10.294;2022-07-24T06:00:03;14.23;;;13.03;;
19231;SDS011;9750;48.730;10.294;2022-07-24T06:02:31;13.40;;;12.30;;
19231;SDS011;9750;48.730;10.294;2022-07-24T06:04:58;13.30;;;12.10;;
19231;SDS011;9750;48.730;10.294;2022-07-24T06:07:25;12.98;;;11.90;;
19231;SDS011;9750;48.730;10.294;2022-07-24T06:09:53;13.05;;;11.85;;
19231;SDS011;9750;48.730;10.294;2022-07-24T06:12:20;12.77;;;11.73;;
19231;SDS011;9750;48.730;10.294;2022-07-24T06:14:49;12.80;;;11.63;;
19231;SDS011;9750;48.730;10.294;2022-07-24T06:17:16;13.45;;;12.15;;
19231;SDS011;9750;48.730;10.294;2022-07-24T06:19:44;12.18;;;10.63;;
19231;SDS011;9750;48.730;10.294;2022-07-24T06:22:11;13.07;;;11.85;;
19231;SDS011;9750;48.730;10.294;2022-07-24T06:24:38;10.93;;;10.02;;
19231;SDS011;9750;48.730;10.294;2022-07-24T06:27:06;11.68;;;10.60;;
19231;SDS011;9750;48.730;10.294;2022-07-24T06:29:33;12.40;;;11.20;;
19231;SDS011;9750;48.730;10.294;2022-07-24T06:32:02;11.10;;;10.13;;
19231;SDS011;9750;48.730;10.294;2022-07-24T06:34:30;10.90;;;9.90;;
19231;SDS011;9750;48.730;10.294;2022-07-24T06:36:57;10.95;;;9.98;;
19231;SDS011;9750;48.730;10.294;2022-07-24T06:39:24;11.10;;;10.00;;
19231;SDS011;9750;48.730;10.294;2022-07-24T06:41:52;12.25;;;11.05;;
19231;SDS011;9750;48.730;10.294;2022-07-24T06:44:19;11.15;;;10.25;;
19231;SDS011;9750;48.730;10.294;2022-07-24T06:46:47;12.10;;;11.02;;
19231;SDS011;9750;48.730;10.294;2022-07-24T06:49:16;11.45;;;10.35;;
19231;SDS011;9750;48.730;10.294;2022-07-24T06:51:44;11.30;;;10.27;;
19231;SDS011;9750;48.730;10.294;2022-07-24T06:54:13;11.32;;;10.10;;
19231;SDS011;9750;48.730;10.294;2022-07-24T06:56:40;11.02;;;9.93;;
19231;SDS011;9750;48.730;10.294;2022-07-24T06:59:08;11.57;;;10.48;;
19231;SDS011;9750;48.730;10.294;2022-07-24T07:01:36;9.50;;;8.80;;
19231;SDS011;9750;48.730;10.294;2022-07-24T07:04:04;10.30;;;9.40;;
19231;SDS011;9750;48.730;10.294;2022-07-24T07:06:32;10.27;;;9.35;;
19231;SDS011;9750;48.730;10.294;2022-07-24T07:09:00;10.93;;;9.93;;
19231;SDS011;9750;48.730;10.294;2022-07-24T07:11:27;10.90;;;9.90;;
19231;SDS011;9750;48.730;10.294;2022-07-24T07:13:54;10.05;;;9.15;;
19231;SDS011;9750;48.730;10.294;2022-07-24T07:16:22;10.35;;;9.45;;
19231;SDS011;9750;48.730;10.294;2022-07-24T07:18:49;10.82;;;9.82;;
19231;SDS011;9750;48.730;10.294;2022-07-24T07:21:17;10.82;;;9.52;;
19231;SDS011;9750;48.730;10.294;2022-07-24T07:23:46;10.40;;;9.50;;
19231;SDS011;9750;48.730;10.294;2022-07-24T07:26:13;9.63;;;8.73;;
19231;SDS011;9750;48.730;10.294;2022-07-24T07:28:41;9.88;;;9.07;;
19231;SDS011;9750;48.730;10.294;2022-07-24T07:31:08;9.60;;;8.82;;
19231;SDS011;9750;48.730;10.294;2022-07-24T07:33:36;10.00;;;9.20;;
19231;SDS011;9750;48.730;10.294;2022-07-24T07:36:03;10.98;;;10.07;;
19231;SDS011;9750;48.730;10.294;2022-07-24T07:38:31;14.98;;;12.93;;
19231;SDS011;9750;48.730;10.294;2022-07-24T07:41:02;12.32;;;10.20;;
19231;SDS011;9750;48.730;10.294;2022-07-24T07:43:29;10.68;;;9.68;;
19231;SDS011;9750;48.730;10.294;2022-07-24T07:45:57;10.35;;;9.35;;
19231;SDS011;9750;48.730;10.294;2022-07-24T07:48:24;10.25;;;9.20;;
19231;SDS011;9750;48.730;10.294;2022-07-24T07:50:52;10.90;;;9.80;;
19231;SDS011;9750;48.730;10.294;2022-07-24T07:53:19;11.93;;;10.80;;
19231;SDS011;9750;48.730;10.294;2022-07-24T07:55:46;11.20;;;10.20;;
19231;SDS011;9750;48.730;10.294;2022-07-24T07:58:18;10.02;;;9.15;;
19231;SDS011;9750;48.730;10.294;2022-07-24T08:00:45;11.27;;;10.18;;
19231;SDS011;9750;48.730;10.294;2022-07-24T08:03:13;10.25;;;9.25;;
19231;SDS011;9750;48.730;10.294;2022-07-24T08:05:40;9.35;;;8.57;;
19231;SDS011;9750;48.730;10.294;2022-07-24T08:08:07;10.65;;;9.65;;
19231;SDS011;9750;48.730;10.294;2022-07-24T08:10:35;10.60;;;9.70;;
19231;SDS011;9750;48.730;10.294;2022-07-24T08:13:02;10.82;;;9.90;;
19231;SDS011;9750;48.730;10.294;2022-07-24T08:15:31;10.68;;;9.68;;
19231;SDS011;9750;48.730;10.294;2022-07-24T08:17:59;10.25;;;9.35;;
19231;SDS011;9750;48.730;10.294;2022-07-24T08:20:27;10.52;;;9.63;;
19231;SDS011;9750;48.730;10.294;2022-07-24T08:26:15;11.15;;;9.95;;
19231;SDS011;9750;48.730;10.294;2022-07-24T08:28:43;10.80;;;9.65;;
19231;SDS011;9750;48.730;10.294;2022-07-24T08:31:12;10.75;;;9.68;;
19231;SDS011;9750;48.730;10.294;2022-07-24T08:33:39;9.68;;;8.85;;
19231;SDS011;9750;48.730;10.294;2022-07-24T08:36:07;10.25;;;9.35;;
19231;SDS011;9750;48.730;10.294;2022-07-24T08:38:35;10.35;;;9.35;;
19231;SDS011;9750;48.730;10.294;2022-07-24T08:41:02;10.50;;;9.60;;
19231;SDS011;9750;48.730;10.294;2022-07-24T08:43:31;10.85;;;9.93;;
19231;SDS011;9750;48.730;10.294;2022-07-24T08:45:58;10.05;;;9.18;;
19231;SDS011;9750;48.730;10.294;2022-07-24T08:48:28;9.65;;;8.85;;
19231;SDS011;9750;48.730;10.294;2022-07-24T08:50:58;11.00;;;9.93;;
19231;SDS011;9750;48.730;10.294;2022-07-24T08:53:26;10.63;;;9.63;;
19231;SDS011;9750;48.730;10.294;2022-07-24T08:55:53;10.52;;;9.43;;
19231;SDS011;9750;48.730;10.294;2022-07-24T08:58:20;9.82;;;8.90;;
19231;SDS011;9750;48.730;10.294;2022-07-24T09:00:48;10.02;;;9.07;;
19231;SDS011;9750;48.730;10.294;2022-07-24T09:03:15;10.85;;;9.80;;
19231;SDS011;9750;48.730;10.294;2022-07-24T09:05:54;10.18;;;9.38;;
19231;SDS011;9750;48.730;10.294;2022-07-24T09:08:22;9.90;;;9.10;;
19231;SDS011;9750;48.730;10.294;2022-07-24T09:10:53;10.52;;;9.63;;
19231;SDS011;9750;48.730;10.294;2022-07-24T09:13:24;10.02;;;9.13;;
19231;SDS011;9750;48.730;10.294;2022-07-24T09:15:55;10.55;;;9.65;;
19231;SDS011;9750;48.730;10.294;2022-07-24T09:18:29;10.18;;;9.38;;
19231;SDS011;9750;48.730;10.294;2022-07-24T09:21:11;11.02;;;9.52;;
19231;SDS011;9750;48.730;10.294;2022-07-24T09:23:39;9.80;;;8.90;;
19231;SDS011;9750;48.730;10.294;2022-07-24T09:26:08;9.38;;;8.60;;
19231;SDS011;9750;48.730;10.294;2022-07-24T09:28:45;9.35;;;8.48;;
19231;SDS011;9750;48.730;10.294;2022-07-24T09:31:14;10.02;;;9.13;;
19231;SDS011;9750;48.730;10.294;2022-07-24T09:33:42;10.13;;;9.20;;
19231;SDS011;9750;48.730;10.294;2022-07-24T09:36:14;13.73;;;12.43;;
19231;SDS011;9750;48.730;10.294;2022-07-24T09:38:48;10.40;;;9.48;;
19231;SDS011;9750;48.730;10.294;2022-07-24T09:41:20;9.93;;;9.13;;
19231;SDS011;9750;48.730;10.294;2022-07-24T09:43:57;9.63;;;8.73;;
19231;SDS011;9750;48.730;10.294;2022-07-24T09:46:26;9.68;;;8.80;;
19231;SDS011;9750;48.730;10.294;2022-07-24T09:48:54;9.93;;;9.07;;
19231;SDS011;9750;48.730;10.294;2022-07-24T09:51:25;9.25;;;8.48;;
19231;SDS011;9750;48.730;10.294;2022-07-24T09:53:53;9.55;;;8.75;;
19231;SDS011;9750;48.730;10.294;2022-07-24T09:56:22;9.07;;;8.27;;
19231;SDS011;9750;48.730;10.294;2022-07-24T09:58:51;8.35;;;7.70;;
19231;SDS011;9750;48.730;10.294;2022-07-24T10:01:20;8.70;;;8.00;;
19231;SDS011;9750;48.730;10.294;2022-07-24T10:03:49;9.18;;;8.38;;
19231;SDS011;9750;48.730;10.294;2022-07-24T10:06:18;9.07;;;8.27;;
19231;SDS011;9750;48.730;10.294;2022-07-24T10:08:50;9.27;;;8.43;;
19231;SDS011;9750;48.730;10.294;2022-07-24T10:11:18;9.70;;;8.90;;
19231;SDS011;9750;48.730;10.294;2022-07-24T10:13:47;9.90;;;9.05;;
19231;SDS011;9750;48.730;10.294;2022-07-24T10:16:24;8.95;;;8.00;;
19231;SDS011;9750;48.730;10.294;2022-07-24T10:18:55;9.30;;;8.40;;
19231;SDS011;9750;48.730;10.294;2022-07-24T10:21:23;9.57;;;8.77;;
19231;SDS011;9750;48.730;10.294;2022-07-24T10:24:02;10.02;;;9.23;;
19231;SDS011;9750;48.730;10.294;2022-07-24T10:26:47;9.45;;;8.65;;
19231;SDS011;9750;48.730;10.294;2022-07-24T10:29:18;9.63;;;8.73;;
19231;SDS011;9750;48.730;10.294;2022-07-24T10:31:47;9.63;;;8.80;;
19231;SDS011;9750;48.730;10.294;2022-07-24T10:34:17;9.27;;;8.45;;
19231;SDS011;9750;48.730;10.294;2022-07-24T10:37:15;9.13;;;8.32;;
19231;SDS011;9750;48.730;10.294;2022-07-24T10:39:53;9.90;;;8.90;;
19231;SDS011;9750;48.730;10.294;2022-07-24T10:45:36;9.55;;;8.70;;
19231;SDS011;9750;48.730;10.294;2022-07-24T10:50:59;9.80;;;9.00;;
19231;SDS011;9750;48.730;10.294;2022-07-24T10:53:29;10.45;;;9.60;;
19231;SDS011;9750;48.730;10.294;2022-07-24T10:56:20;9.00;;;8.20;;
19231;SDS011;9750;48.730;10.294;2022-07-24T10:58:52;9.98;;;9.18;;
19231;SDS011;9750;48.730;10.294;2022-07-24T11:01:29;9.07;;;8.38;;
19231;SDS011;9750;48.730;10.294;2022-07-24T11:03:59;10.10;;;9.10;;
19231;SDS011;9750;48.730;10.294;2022-07-24T11:06:43;9.52;;;8.77;;
19231;SDS011;9750;48.730;10.294;2022-07-24T11:09:12;9.50;;;8.77;;
19231;SDS011;9750;48.730;10.294;2022-07-24T11:11:48;9.52;;;8.73;;
19231;SDS011;9750;48.730;10.294;2022-07-24T11:14:46;9.40;;;8.60;;
19231;SDS011;9750;48.730;10.294;2022-07-24T11:20:11;10.25;;;9.35;;
19231;SDS011;9750;48.730;10.294;2022-07-24T11:29:10;9.60;;;8.88;;
19231;SDS011;9750;48.730;10.294;2022-07-24T11:38:27;9.35;;;8.48;;
19231;SDS011;9750;48.730;10.294;2022-07-24T11:41:03;9.52;;;8.73;;
19231;SDS011;9750;48.730;10.294;2022-07-24T11:43:32;9.82;;;9.00;;
19231;SDS011;9750;48.730;10.294;2022-07-24T11:56:14;8.95;;;8.10;;
19231;SDS011;9750;48.730;10.294;2022-07-24T11:58:43;8.45;;;7.72;;
19231;SDS011;9750;48.730;10.294;2022-07-24T12:01:25;8.43;;;7.72;;
19231;SDS011;9750;48.730;10.294;2022-07-24T12:30:37;8.43;;;7.72;;
19231;SDS011;9750;48.730;10.294;2022-07-24T12:33:19;8.65;;;8.00;;
19231;SDS011;9750;48.730;10.294;2022-07-24T12:35:52;9.35;;;8.48;;
19231;SDS011;9750;48.730;10.294;2022-07-24T12:38:24;9.55;;;8.75;;
19231;SDS011;9750;48.730;10.294;2022-07-24T12:41:00;8.65;;;7.95;;
19231;SDS011;9750;48.730;10.294;2022-07-24T12:43:30;8.80;;;8.00;;
19231;SDS011;9750;48.730;10.294;2022-07-24T12:46:09;9.35;;;8.45;;
19231;SDS011;9750;48.730;10.294;2022-07-24T12:48:37;9.43;;;8.52;;
19231;SDS011;9750;48.730;10.294;2022-07-24T12:51:06;8.43;;;7.72;;
19231;SDS011;9750;48.730;10.294;2022-07-24T12:53:37;8.98;;;8.27;;
19231;SDS011;9750;48.730;10.294;2022-07-24T12:56:09;9.23;;;8.43;;
19231;SDS011;9750;48.730;10.294;2022-07-24T12:58:47;8.63;;;7.90;;
19231;SDS011;9750;48.730;10.294;2022-07-24T13:01:20;9.00;;;8.20;;
19231;SDS011;9750;48.730;10.294;2022-07-24T13:03:49;9.40;;;8.38;;
19231;SDS011;9750;48.730;10.294;2022-07-24T13:06:29;9.60;;;8.75;;
19231;SDS011;9750;48.730;10.294;2022-07-24T13:08:58;8.35;;;7.65;;
19231;SDS011;9750;48.730;10.294;2022-07-24T13:11:26;8.98;;;8.18;;
19231;SDS011;9750;48.730;10.294;2022-07-24T13:13:53;8.48;;;7.63;;
19231;SDS011;9750;48.730;10.294;2022-07-24T13:16:22;9.13;;;8.43;;
19231;SDS011;9750;48.730;10.294;2022-07-24T13:18:53;9.27;;;8.48;;
19231;SDS011;9750;48.730;10.294;2022-07-24T13:21:21;9.07;;;8.32;;
19231;SDS011;9750;48.730;10.294;2022-07-24T13:23:48;8.70;;;7.90;;
19231;SDS011;9750;48.730;10.294;2022-07-24T13:26:16;9.00;;;8.27;;
19231;SDS011;9750;48.730;10.294;2022-07-24T13:28:43;8.38;;;7.68;;
19231;SDS011;9750;48.730;10.294;2022-07-24T13:31:11;8.60;;;7.90;;
19231;SDS011;9750;48.730;10.294;2022-07-24T13:33:40;8.45;;;7.78;;
19231;SDS011;9750;48.730;10.294;2022-07-24T13:36:08;8.18;;;7.47;;
19231;SDS011;9750;48.730;10.294;2022-07-24T13:38:35;8.60;;;7.90;;
19231;SDS011;9750;48.730;10.294;2022-07-24T13:41:03;8.10;;;7.40;;
19231;SDS011;9750;48.730;10.294;2022-07-24T13:43:31;8.38;;;7.68;;
19231;SDS011;9750;48.730;10.294;2022-07-24T13:45:59;7.53;;;6.93;;
19231;SDS011;9750;48.730;10.294;2022-07-24T13:48:26;8.07;;;7.45;;
19231;SDS011;9750;48.730;10.294;2022-07-24T13:50:55;8.02;;;7.35;;
19231;SDS011;9750;48.730;10.294;2022-07-24T13:53:23;8.98;;;8.07;;
19231;SDS011;9750;48.730;10.294;2022-07-24T13:55:50;9.55;;;8.63;;
19231;SDS011;9750;48.730;10.294;2022-07-24T13:58:18;7.93;;;7.20;;
19231;SDS011;9750;48.730;10.294;2022-07-24T14:00:45;8.27;;;7.47;;
19231;SDS011;9750;48.730;10.294;2022-07-24T14:41:50;8.18;;;7.47;;
19231;SDS011;9750;48.730;10.294;2022-07-24T14:44:18;8.18;;;7.30;;
19231;SDS011;9750;48.730;10.294;2022-07-24T14:46:45;8.25;;;7.57;;
19231;SDS011;9750;48.730;10.294;2022-07-24T14:49:13;8.23;;;7.50;;
19231;SDS011;9750;48.730;10.294;2022-07-24T14:51:40;7.78;;;7.07;;
19231;SDS011;9750;48.730;10.294;2022-07-24T14:54:08;8.40;;;7.45;;
19231;SDS011;9750;48.730;10.294;2022-07-24T14:56:36;8.05;;;7.28;;
19231;SDS011;9750;48.730;10.294;2022-07-24T14:59:06;8.15;;;7.35;;
19231;SDS011;9750;48.730;10.294;2022-07-24T15:01:34;8.50;;;7.70;;
19231;SDS011;9750;48.730;10.294;2022-07-24T15:04:01;7.63;;;6.95;;
19231;SDS011;9750;48.730;10.294;2022-07-24T15:06:29;8.05;;;7.25;;
19231;SDS011;9750;48.730;10.294;2022-07-24T15:08:57;7.68;;;7.07;;
19231;SDS011;9750;48.730;10.294;2022-07-24T15:11:24;8.13;;;7.43;;
19231;SDS011;9750;48.730;10.294;2022-07-24T15:13:51;7.50;;;6.90;;
19231;SDS011;9750;48.730;10.294;2022-07-24T15:16:20;7.00;;;6.47;;
19231;SDS011;9750;48.730;10.294;2022-07-24T15:18:48;7.03;;;6.45;;
19231;SDS011;9750;48.730;10.294;2022-07-24T15:21:15;7.00;;;6.40;;
19231;SDS011;9750;48.730;10.294;2022-07-24T15:23:43;7.60;;;6.90;;
19231;SDS011;9750;48.730;10.294;2022-07-24T15:26:10;7.78;;;7.18;;
19231;SDS011;9750;48.730;10.294;2022-07-24T15:28:38;7.10;;;6.55;;
19231;SDS011;9750;48.730;10.294;2022-07-24T15:31:05;7.72;;;7.03;;
19231;SDS011;9750;48.730;10.294;2022-07-24T15:33:36;8.20;;;7.40;;
19231;SDS011;9750;48.730;10.294;2022-07-24T15:36:04;7.55;;;6.97;;
19231;SDS011;9750;48.730;10.294;2022-07-24T15:38:32;7.32;;;6.78;;
19231;SDS011;9750;48.730;10.294;2022-07-24T15:41:00;8.00;;;7.32;;
19231;SDS011;9750;48.730;10.294;2022-07-24T15:43:27;7.20;;;6.57;;
19231;SDS011;9750;48.730;10.294;2022-07-24T15:45:55;7.25;;;6.55;;
19231;SDS011;9750;48.730;10.294;2022-07-24T15:48:22;7.20;;;6.70;;
19231;SDS011;9750;48.730;10.294;2022-07-24T15:50:51;7.55;;;6.85;;
19231;SDS011;9750;48.730;10.294;2022-07-24T15:53:19;7.07;;;6.57;;
19231;SDS011;9750;48.730;10.294;2022-07-24T15:55:46;7.22;;;6.65;;
19231;SDS011;9750;48.730;10.294;2022-07-24T15:58:14;7.53;;;6.90;;
19231;SDS011;9750;48.730;10.294;2022-07-24T16:00:41;7.45;;;6.85;;
19231;SDS011;9750;48.730;10.294;2022-07-24T16:03:09;7.28;;;6.65;;
19231;SDS011;9750;48.730;10.294;2022-07-24T16:05:37;7.57;;;6.88;;
19231;SDS011;9750;48.730;10.294;2022-07-24T16:08:06;7.15;;;6.60;;
19231;SDS011;9750;48.730;10.294;2022-07-24T16:10:33;7.25;;;6.65;;
19231;SDS011;9750;48.730;10.294;2022-07-24T16:16:04;6.93;;;6.43;;
19231;SDS011;9750;48.730;10.294;2022-07-24T16:18:31;7.43;;;6.82;;
19231;SDS011;9750;48.730;10.294;2022-07-24T16:21:01;6.82;;;6.22;;
19231;SDS011;9750;48.730;10.294;2022-07-24T16:23:30;7.45;;;6.70;;
19231;SDS011;9750;48.730;10.294;2022-07-24T16:25:59;6.93;;;6.43;;
19231;SDS011;9750;48.730;10.294;2022-07-24T16:28:26;6.90;;;6.30;;
19231;SDS011;9750;48.730;10.294;2022-07-24T16:30:54;7.60;;;7.07;;
19231;SDS011;9750;48.730;10.294;2022-07-24T16:33:21;7.40;;;6.78;;
19231;SDS011;9750;48.730;10.294;2022-07-24T16:35:48;7.38;;;6.68;;
19231;SDS011;9750;48.730;10.294;2022-07-24T16:38:16;7.25;;;6.65;;
19231;SDS011;9750;48.730;10.294;2022-07-24T16:40:45;7.00;;;6.32;;